createdAt,value
2022-12-27T00:00:09.415Z,-0.10
2022-12-27T00:02:40.257Z,-0.19
2022-12-27T00:05:10.862Z,-0.08
2022-12-27T00:07:37.592Z,-0.10
2022-12-27T00:10:06.514Z,-0.09
2022-12-27T00:12:33.617Z,-0.07
2022-12-27T00:15:00.516Z,-0.07
2022-12-27T00:17:27.741Z,-0.06
2022-12-27T00:19:54.750Z,-0.06
2022-12-27T00:22:21.416Z,-0.03
2022-12-27T00:24:57.136Z,-0.08
2022-12-27T00:27:24.390Z,0.02
2022-12-27T00:29:51.033Z,0.03
2022-12-27T00:32:18.090Z,-0.05
2022-12-27T00:34:44.984Z,0.05
2022-12-27T00:37:11.769Z,0.04
2022-12-27T00:39:38.472Z,0.07
2022-12-27T00:42:05.511Z,0.06
2022-12-27T00:44:32.138Z,0.12
2022-12-27T00:46:58.883Z,0.11
2022-12-27T00:49:25.795Z,0.12
2022-12-27T00:51:52.481Z,0.08
2022-12-27T00:54:19.111Z,0.09
2022-12-27T00:56:46.036Z,0.17
2022-12-27T00:59:13.059Z,0.21
2022-12-27T01:01:40.366Z,0.22
2022-12-27T01:04:07.750Z,0.23
2022-12-27T01:06:35.404Z,0.24
2022-12-27T01:09:03.407Z,0.27
2022-12-27T01:11:30.837Z,0.18
2022-12-27T01:13:59.897Z,0.29
2022-12-27T01:16:28.708Z,0.31
2022-12-27T01:18:55.737Z,0.35
2022-12-27T01:21:24.894Z,0.35
2022-12-27T01:23:52.057Z,0.34
2022-12-27T01:26:21.062Z,0.35
2022-12-27T01:28:48.858Z,0.29
2022-12-27T01:31:19.217Z,0.39
2022-12-27T01:33:46.679Z,0.40
2022-12-27T01:36:19.498Z,0.41
2022-12-27T01:38:50.165Z,0.43
2022-12-27T01:41:39.850Z,0.44
2022-12-27T01:44:37.835Z,0.35
2022-12-27T01:47:42.308Z,0.48
2022-12-27T01:50:27.631Z,0.49
2022-12-27T01:53:16.709Z,0.50
2022-12-27T01:55:52.941Z,0.50
2022-12-27T01:58:30.473Z,0.51
2022-12-27T02:00:59.043Z,0.46
2022-12-27T02:03:39.665Z,0.54
2022-12-27T02:06:09.636Z,0.56
2022-12-27T02:08:56.754Z,0.49
2022-12-27T02:11:53.850Z,0.50
2022-12-27T02:14:39.267Z,0.60
2022-12-27T02:17:22.783Z,0.60
2022-12-27T02:19:55.285Z,0.62
2022-12-27T02:23:19.795Z,0.46
2022-12-27T02:26:07.941Z,0.64
2022-12-27T02:28:49.122Z,0.58
2022-12-27T02:31:23.531Z,0.67
2022-12-27T02:33:52.271Z,0.69
2022-12-27T02:36:27.210Z,0.69
2022-12-27T02:38:59.367Z,0.71
2022-12-27T02:41:45.763Z,0.72
2022-12-27T02:44:37.232Z,0.75
2022-12-27T02:47:32.709Z,0.76
2022-12-27T02:50:17.973Z,0.74
2022-12-27T02:53:10.424Z,0.78
2022-12-27T02:55:40.237Z,0.79
2022-12-27T02:58:31.929Z,0.80
2022-12-27T03:01:46.718Z,0.82
2022-12-27T03:04:32.002Z,0.83
2022-12-27T03:07:15.824Z,0.84
2022-12-27T03:10:22.366Z,0.73
2022-12-27T03:13:23.153Z,0.85
2022-12-27T03:16:09.112Z,0.87
2022-12-27T03:19:37.114Z,0.88
2022-12-27T03:22:22.716Z,0.90
2022-12-27T03:25:08.677Z,0.83
2022-12-27T03:27:37.875Z,0.95
2022-12-27T03:30:27.116Z,0.94
2022-12-27T03:33:13.671Z,0.97
2022-12-27T03:36:06.917Z,0.99
2022-12-27T03:38:43.402Z,0.93
2022-12-27T03:41:35.490Z,1.02
2022-12-27T03:44:22.309Z,1.03
2022-12-27T03:46:53.023Z,1.05
2022-12-27T03:49:38.379Z,0.96
2022-12-27T03:52:11.892Z,1.08
2022-12-27T03:54:44.987Z,1.10
2022-12-27T03:57:15.357Z,1.11
2022-12-27T03:59:41.985Z,1.11
2022-12-27T04:02:08.908Z,1.07
2022-12-27T04:04:37.058Z,1.05
2022-12-27T04:07:05.005Z,1.15
2022-12-27T04:09:51.093Z,1.15
2022-12-27T04:12:37.156Z,1.15
2022-12-27T04:15:23.124Z,1.13
2022-12-27T04:18:08.777Z,1.16
2022-12-27T04:20:54.091Z,1.18
2022-12-27T04:23:40.105Z,1.18
2022-12-27T04:26:25.497Z,1.21
2022-12-27T04:29:11.274Z,1.21
2022-12-27T04:31:57.285Z,1.26
2022-12-27T04:34:39.852Z,1.19
2022-12-27T04:37:06.599Z,1.22
2022-12-27T04:39:33.498Z,1.31
2022-12-27T04:42:19.104Z,1.30
2022-12-27T04:45:04.317Z,1.29
2022-12-27T04:47:50.673Z,1.34
2022-12-27T04:50:51.241Z,1.34
2022-12-27T04:53:39.553Z,1.35
2022-12-27T04:56:07.235Z,1.40
2022-12-27T04:58:34.492Z,1.40
2022-12-27T05:01:22.465Z,1.47
2022-12-27T05:03:51.895Z,1.39
2022-12-27T05:06:19.311Z,1.52
2022-12-27T05:09:04.733Z,1.54
2022-12-27T05:11:50.242Z,1.49
2022-12-27T05:14:17.045Z,1.57
2022-12-27T05:16:44.506Z,1.50
2022-12-27T05:19:13.667Z,1.63
2022-12-27T05:22:06.165Z,1.57
2022-12-27T05:24:51.728Z,1.65
2022-12-27T05:27:18.833Z,1.66
2022-12-27T05:29:46.784Z,1.68
2022-12-27T05:32:13.984Z,1.66
2022-12-27T05:34:41.196Z,1.71
2022-12-27T05:37:08.660Z,1.75
2022-12-27T05:39:35.480Z,1.66
2022-12-27T05:42:03.340Z,1.80
2022-12-27T05:44:30.387Z,1.77
2022-12-27T05:46:57.125Z,1.83
2022-12-27T05:49:23.829Z,1.85
2022-12-27T05:51:50.855Z,1.86
2022-12-27T05:54:17.595Z,1.86
2022-12-27T05:56:44.311Z,1.85
2022-12-27T05:59:11.295Z,1.79
2022-12-27T06:01:38.032Z,1.82
2022-12-27T06:04:06.470Z,1.93
2022-12-27T06:06:34.563Z,1.94
2022-12-27T06:09:01.206Z,1.90
2022-12-27T06:11:28.172Z,1.99
2022-12-27T06:13:54.896Z,1.98
2022-12-27T06:16:22.504Z,2.02
2022-12-27T06:18:49.569Z,2.05
2022-12-27T06:21:19.298Z,2.08
2022-12-27T06:23:46.743Z,2.10
2022-12-27T06:26:23.730Z,2.11
2022-12-27T06:28:51.100Z,2.12
2022-12-27T06:31:19.434Z,2.10
2022-12-27T06:33:47.359Z,2.17
2022-12-27T06:36:16.019Z,2.20
2022-12-27T06:38:43.870Z,2.16
2022-12-27T06:41:17.495Z,2.19
2022-12-27T06:43:45.572Z,2.29
2022-12-27T06:46:17.667Z,2.31
2022-12-27T06:48:46.266Z,2.30
2022-12-27T06:51:14.620Z,2.33
2022-12-27T06:53:41.822Z,2.34
2022-12-27T06:56:11.439Z,2.37
2022-12-27T06:58:38.408Z,2.28
2022-12-27T07:01:13.854Z,2.39
2022-12-27T07:03:41.466Z,2.40
2022-12-27T07:06:11.268Z,2.40
2022-12-27T07:08:38.927Z,2.44
2022-12-27T07:11:08.669Z,2.48
2022-12-27T07:13:37.219Z,2.52
2022-12-27T07:16:05.940Z,2.49
2022-12-27T07:18:33.667Z,2.52
2022-12-27T07:21:07.742Z,2.60
2022-12-27T07:23:34.765Z,2.62
2022-12-27T07:26:09.271Z,2.64
2022-12-27T07:28:37.171Z,2.68
2022-12-27T07:31:15.341Z,2.71
2022-12-27T07:33:43.072Z,2.75
2022-12-27T07:36:13.703Z,2.72
2022-12-27T07:38:40.516Z,2.83
2022-12-27T07:41:07.903Z,2.86
2022-12-27T07:43:35.875Z,2.81
2022-12-27T07:46:09.089Z,2.95
2022-12-27T07:48:36.799Z,2.97
2022-12-27T07:51:04.459Z,3.04
2022-12-27T07:53:31.949Z,3.07
2022-12-27T07:55:59.391Z,3.14
2022-12-27T07:58:26.207Z,3.21
2022-12-27T08:00:53.071Z,3.19
2022-12-27T08:03:20.234Z,3.33
2022-12-27T08:05:54.323Z,3.35
2022-12-27T08:08:24.984Z,3.39
2022-12-27T08:10:51.789Z,3.42
2022-12-27T08:13:18.410Z,3.50
2022-12-27T08:15:45.314Z,3.55
2022-12-27T08:18:12.067Z,3.61
2022-12-27T08:20:38.731Z,3.66
2022-12-27T08:23:05.635Z,3.70
2022-12-27T08:25:32.269Z,3.74
2022-12-27T08:28:06.779Z,3.73
2022-12-27T08:30:34.186Z,3.83
2022-12-27T08:33:02.220Z,3.84
2022-12-27T08:38:16.591Z,3.86
2022-12-27T08:40:44.878Z,3.84
2022-12-27T08:43:12.603Z,3.94
2022-12-27T08:45:39.803Z,3.99
2022-12-27T08:48:07.068Z,4.03
2022-12-27T08:50:34.113Z,4.00
2022-12-27T08:53:02.721Z,4.03
2022-12-27T08:55:30.415Z,4.15
2022-12-27T08:58:02.614Z,4.18
2022-12-27T09:00:30.028Z,4.21
2022-12-27T09:02:57.472Z,4.23
2022-12-27T09:05:25.895Z,4.23
2022-12-27T09:07:53.263Z,4.27
2022-12-27T09:10:21.401Z,4.30
2022-12-27T09:12:48.133Z,4.29
2022-12-27T09:15:15.260Z,4.35
2022-12-27T09:17:42.032Z,4.38
2022-12-27T09:20:09.806Z,4.40
2022-12-27T09:22:36.677Z,4.41
2022-12-27T09:25:03.607Z,4.46
2022-12-27T09:27:30.359Z,4.42
2022-12-27T09:29:57.282Z,4.56
2022-12-27T09:32:27.406Z,4.59
2022-12-27T09:34:54.664Z,4.64
2022-12-27T09:37:21.625Z,4.65
2022-12-27T09:39:48.314Z,4.71
2022-12-27T09:43:07.244Z,4.66
2022-12-27T09:45:35.686Z,4.79
2022-12-27T09:48:07.394Z,4.74
2022-12-27T09:50:38.024Z,4.85
2022-12-27T09:53:22.098Z,4.85
2022-12-27T09:55:55.498Z,4.83
2022-12-27T09:58:34.319Z,4.81
2022-12-27T10:01:02.624Z,4.81
2022-12-27T10:03:30.698Z,4.83
2022-12-27T10:06:23.800Z,4.87
2022-12-27T10:09:19.852Z,4.93
2022-12-27T10:12:15.397Z,4.95
2022-12-27T10:15:14.731Z,4.99
2022-12-27T10:18:05.846Z,4.99
2022-12-27T10:21:10.034Z,4.92
2022-12-27T10:23:42.154Z,5.06
2022-12-27T10:26:15.231Z,5.08
2022-12-27T10:28:47.443Z,5.08
2022-12-27T10:31:18.592Z,5.12
2022-12-27T10:33:47.563Z,5.16
2022-12-27T10:36:18.373Z,5.11
2022-12-27T10:38:45.309Z,5.11
2022-12-27T10:41:50.323Z,5.16
2022-12-27T10:44:17.426Z,5.12
2022-12-27T10:46:51.263Z,5.11
2022-12-27T10:49:39.611Z,4.98
2022-12-27T10:52:23.384Z,5.06
2022-12-27T10:54:55.503Z,5.14
2022-12-27T10:57:28.172Z,5.22
2022-12-27T11:00:17.950Z,5.26
2022-12-27T11:02:56.588Z,5.29
2022-12-27T11:05:30.393Z,5.34
2022-12-27T11:07:57.700Z,5.41
2022-12-27T11:10:33.730Z,5.45
2022-12-27T11:13:07.687Z,5.51
2022-12-27T11:15:40.902Z,5.56
2022-12-27T11:18:17.179Z,5.54
2022-12-27T11:20:49.377Z,5.62
2022-12-27T11:23:19.250Z,5.63
2022-12-27T11:25:56.034Z,5.57
2022-12-27T11:28:40.869Z,5.65
2022-12-27T11:31:09.739Z,5.63
2022-12-27T11:33:41.170Z,5.67
2022-12-27T11:36:13.522Z,5.58
2022-12-27T11:38:42.945Z,5.66
2022-12-27T11:41:13.432Z,5.67
2022-12-27T11:43:49.959Z,5.71
2022-12-27T11:46:45.463Z,5.71
2022-12-27T11:49:21.626Z,5.76
2022-12-27T11:52:10.473Z,5.78
2022-12-27T11:55:14.344Z,5.81
2022-12-27T11:58:01.151Z,5.82
2022-12-27T12:00:40.323Z,5.79
2022-12-27T12:03:45.300Z,5.77
2022-12-27T12:06:38.532Z,5.76
2022-12-27T12:09:29.424Z,5.72
2022-12-27T12:12:24.511Z,5.58
2022-12-27T12:15:21.438Z,5.70
2022-12-27T12:18:26.002Z,5.70
2022-12-27T12:21:08.690Z,5.67
2022-12-27T12:24:09.487Z,5.66
2022-12-27T12:27:10.627Z,5.63
2022-12-27T12:29:52.560Z,5.62
2022-12-27T12:32:28.612Z,5.59
2022-12-27T12:35:14.797Z,5.57
2022-12-27T12:38:03.544Z,5.55
2022-12-27T12:41:12.262Z,5.54
2022-12-27T12:43:47.900Z,5.51
2022-12-27T12:46:20.412Z,5.52
2022-12-27T12:49:08.522Z,5.53
2022-12-27T12:51:54.884Z,5.52
2022-12-27T12:54:46.886Z,5.53
2022-12-27T12:57:28.985Z,5.52
2022-12-27T13:00:08.971Z,5.53
2022-12-27T13:02:57.671Z,5.54
2022-12-27T13:05:46.614Z,5.52
2022-12-27T13:08:22.435Z,5.50
2022-12-27T13:11:34.728Z,5.50
2022-12-27T13:14:22.911Z,5.47
2022-12-27T13:17:00.875Z,5.49
2022-12-27T13:19:55.139Z,5.49
2022-12-27T13:22:46.213Z,5.49
2022-12-27T13:25:46.134Z,5.48
2022-12-27T13:28:40.636Z,5.48
2022-12-27T13:32:04.787Z,5.49
2022-12-27T13:35:03.840Z,5.47
2022-12-27T13:37:30.586Z,5.49
2022-12-27T13:40:43.398Z,5.49
2022-12-27T13:43:37.695Z,5.48
2022-12-27T13:46:07.755Z,5.47
2022-12-27T13:49:02.805Z,5.45
2022-12-27T13:51:46.396Z,5.45
2022-12-27T13:54:48.605Z,5.46
2022-12-27T13:57:40.250Z,5.46
2022-12-27T14:00:17.643Z,5.42
2022-12-27T14:03:17.018Z,5.45
2022-12-27T14:06:19.990Z,5.45
2022-12-27T14:08:49.874Z,5.44
2022-12-27T14:11:32.918Z,5.38
2022-12-27T14:14:02.558Z,5.37
2022-12-27T14:16:59.574Z,5.47
2022-12-27T14:19:58.629Z,5.49
2022-12-27T14:22:34.493Z,5.33
2022-12-27T14:25:13.113Z,5.48
2022-12-27T14:28:06.797Z,5.49
2022-12-27T14:30:46.022Z,5.49
2022-12-27T14:33:33.132Z,5.52
2022-12-27T14:36:21.294Z,5.53
2022-12-27T14:38:53.737Z,5.54
2022-12-27T14:41:51.348Z,5.53
2022-12-27T14:44:17.972Z,5.52
2022-12-27T14:47:19.277Z,5.53
2022-12-27T14:50:15.062Z,5.55
2022-12-27T14:53:04.026Z,5.53
2022-12-27T14:55:42.900Z,5.54
2022-12-27T14:58:28.442Z,5.44
2022-12-27T15:01:43.233Z,5.52
2022-12-27T15:04:31.771Z,5.51
2022-12-27T15:07:16.854Z,5.48
2022-12-27T15:10:07.449Z,5.46
2022-12-27T15:13:15.525Z,5.46
2022-12-27T15:15:42.436Z,5.46
2022-12-27T15:18:19.980Z,5.36
2022-12-27T15:21:15.377Z,5.41
2022-12-27T15:23:42.132Z,5.39
2022-12-27T15:26:15.022Z,5.39
2022-12-27T15:29:08.912Z,5.38
2022-12-27T15:31:47.461Z,5.36
2022-12-27T15:34:32.724Z,5.33
2022-12-27T15:37:00.195Z,5.31
2022-12-27T15:39:33.092Z,5.27
2022-12-27T15:42:36.588Z,5.23
2022-12-27T15:45:24.423Z,5.21
2022-12-27T15:48:22.659Z,5.18
2022-12-27T15:51:15.013Z,5.14
2022-12-27T15:54:06.777Z,5.10
2022-12-27T15:56:42.575Z,5.03
2022-12-27T15:59:31.385Z,4.97
2022-12-27T16:02:19.947Z,4.88
2022-12-27T16:04:53.890Z,4.76
2022-12-27T16:07:36.162Z,4.57
2022-12-27T16:10:30.405Z,4.55
2022-12-27T16:13:19.583Z,4.47
2022-12-27T16:15:50.934Z,4.38
2022-12-27T16:18:23.903Z,4.29
2022-12-27T16:21:06.293Z,4.20
2022-12-27T16:23:48.496Z,4.09
2022-12-27T16:26:15.350Z,3.99
2022-12-27T16:28:51.481Z,3.91
2022-12-27T16:31:23.653Z,3.83
2022-12-27T16:33:52.266Z,3.75
2022-12-27T16:36:23.107Z,3.68
2022-12-27T16:39:14.307Z,3.52
2022-12-27T16:42:00.130Z,3.52
2022-12-27T16:44:38.416Z,3.46
2022-12-27T16:47:28.230Z,3.41
2022-12-27T16:50:16.822Z,3.28
2022-12-27T16:52:47.463Z,3.34
2022-12-27T16:55:26.479Z,3.32
2022-12-27T16:58:31.396Z,3.29
2022-12-27T17:01:00.651Z,3.27
2022-12-27T17:03:36.886Z,3.14
2022-12-27T17:06:32.684Z,3.19
2022-12-27T17:09:09.764Z,3.14
2022-12-27T17:11:59.887Z,3.13
2022-12-27T17:14:31.757Z,3.13
2022-12-27T17:17:02.776Z,3.09
2022-12-27T17:19:39.777Z,3.07
2022-12-27T17:22:12.499Z,3.06
2022-12-27T17:24:39.575Z,3.03
2022-12-27T17:27:50.453Z,2.91
2022-12-27T17:30:46.747Z,2.88
2022-12-27T17:33:27.290Z,2.94
2022-12-27T17:36:13.816Z,2.91
2022-12-27T17:39:09.941Z,2.87
2022-12-27T17:42:10.125Z,2.84
2022-12-27T17:44:42.005Z,2.82
2022-12-27T17:47:27.275Z,2.79
2022-12-27T17:49:54.249Z,2.77
2022-12-27T17:52:48.533Z,2.74
2022-12-27T17:55:38.796Z,2.71
2022-12-27T17:58:09.462Z,2.69
2022-12-27T18:00:55.039Z,2.69
2022-12-27T18:03:23.513Z,2.60
2022-12-27T18:05:50.271Z,2.66
2022-12-27T18:08:24.816Z,2.57
2022-12-27T18:10:51.990Z,2.62
2022-12-27T18:13:23.035Z,2.62
2022-12-27T18:15:50.563Z,2.52
2022-12-27T18:18:35.775Z,2.58
2022-12-27T18:21:04.943Z,2.43
2022-12-27T18:23:42.926Z,2.56
2022-12-27T18:26:13.337Z,2.54
2022-12-27T18:28:41.862Z,2.52
2022-12-27T18:31:20.136Z,2.51
2022-12-27T18:33:51.529Z,2.50
2022-12-27T18:36:23.887Z,2.46
2022-12-27T18:39:26.383Z,2.48
2022-12-27T18:41:54.690Z,2.44
2022-12-27T18:44:31.706Z,2.44
2022-12-27T18:47:02.506Z,2.42
2022-12-27T18:49:35.237Z,2.39
2022-12-27T18:52:10.983Z,2.35
2022-12-27T18:54:38.105Z,2.40
2022-12-27T18:57:07.042Z,2.37
2022-12-27T18:59:36.760Z,2.35
2022-12-27T19:02:34.641Z,2.35
2022-12-27T19:05:19.923Z,2.33
2022-12-27T19:07:47.025Z,2.33
2022-12-27T19:10:19.509Z,2.29
2022-12-27T19:12:47.477Z,2.28
2022-12-27T19:15:50.052Z,2.24
2022-12-27T19:18:33.857Z,2.26
2022-12-27T19:21:03.114Z,2.26
2022-12-27T19:23:39.072Z,2.24
2022-12-27T19:26:24.263Z,2.26
2022-12-27T19:29:21.445Z,2.26
2022-12-27T19:31:56.891Z,2.26
2022-12-27T19:34:26.844Z,2.26
2022-12-27T19:36:55.301Z,2.25
2022-12-27T19:39:27.493Z,2.25
2022-12-27T19:42:01.133Z,2.15
2022-12-27T19:44:29.192Z,2.26
2022-12-27T19:46:56.169Z,2.25
2022-12-27T19:49:41.781Z,2.19
2022-12-27T19:52:18.170Z,2.21
2022-12-27T19:54:46.158Z,2.18
2022-12-27T19:57:13.796Z,2.15
2022-12-27T19:59:40.724Z,2.12
2022-12-27T20:02:11.727Z,2.09
2022-12-27T20:04:39.112Z,1.96
2022-12-27T20:07:06.041Z,2.06
2022-12-27T20:09:32.800Z,2.04
2022-12-27T20:12:00.063Z,2.04
2022-12-27T20:14:26.737Z,2.04
2022-12-27T20:16:53.479Z,2.05
2022-12-27T20:19:20.580Z,2.05
2022-12-27T20:21:47.459Z,2.06
2022-12-27T20:24:14.368Z,2.09
2022-12-27T20:26:42.591Z,2.09
2022-12-27T20:29:10.190Z,2.09
2022-12-27T20:31:44.178Z,2.03
2022-12-27T20:34:13.039Z,2.10
2022-12-27T20:36:39.756Z,2.11
2022-12-27T20:39:07.440Z,2.13
2022-12-27T20:41:34.705Z,2.13
2022-12-27T20:44:01.696Z,2.14
2022-12-27T20:46:28.548Z,2.11
2022-12-27T20:48:56.493Z,2.13
2022-12-27T20:51:27.440Z,2.03
2022-12-27T20:53:57.616Z,2.12
2022-12-27T20:56:25.917Z,2.13
2022-12-27T20:58:54.600Z,2.11
2022-12-27T21:01:24.972Z,2.11
2022-12-27T21:03:55.830Z,2.02
2022-12-27T21:06:25.416Z,2.09
2022-12-27T21:08:56.764Z,2.10
2022-12-27T21:11:33.649Z,2.08
2022-12-27T21:14:02.949Z,2.10
2022-12-27T21:16:32.574Z,2.10
2022-12-27T21:19:03.436Z,2.10
2022-12-27T21:21:32.067Z,2.09
2022-12-27T21:23:59.223Z,2.00
2022-12-27T21:26:35.847Z,2.10
2022-12-27T21:29:06.002Z,2.07
2022-12-27T21:31:34.326Z,2.10
2022-12-27T21:34:01.277Z,2.10
2022-12-27T21:36:30.808Z,2.10
2022-12-27T21:38:57.597Z,2.10
2022-12-27T21:41:26.405Z,2.05
2022-12-27T21:43:53.830Z,2.08
2022-12-27T21:46:23.548Z,2.08
2022-12-27T21:48:55.707Z,1.99
2022-12-27T21:51:23.135Z,2.00
2022-12-27T21:53:50.561Z,2.08
2022-12-27T21:56:17.883Z,2.07
2022-12-27T21:58:46.478Z,2.06
2022-12-27T22:01:21.997Z,2.07
2022-12-27T22:03:52.803Z,2.07
2022-12-27T22:06:31.500Z,2.01
2022-12-27T22:09:01.138Z,1.98
2022-12-27T22:11:29.163Z,2.05
2022-12-27T22:13:56.192Z,2.06
2022-12-27T22:16:26.348Z,2.08
2022-12-27T22:18:56.353Z,2.07
2022-12-27T22:21:28.087Z,2.07
2022-12-27T22:23:59.713Z,2.06
2022-12-27T22:26:34.836Z,1.91
2022-12-27T22:29:02.036Z,2.05
2022-12-27T22:31:33.717Z,2.07
2022-12-27T22:34:01.325Z,2.05
2022-12-27T22:36:28.386Z,2.04
2022-12-27T22:38:57.431Z,2.07
2022-12-27T22:41:26.102Z,1.95
2022-12-27T22:43:55.701Z,2.05
2022-12-27T22:46:23.102Z,2.05
2022-12-27T22:48:54.672Z,2.04
2022-12-27T22:51:27.745Z,1.93
2022-12-27T22:53:56.651Z,2.03
2022-12-27T22:56:25.881Z,2.03
2022-12-27T22:58:52.587Z,1.91
2022-12-27T23:01:22.373Z,2.00
2022-12-27T23:03:49.481Z,2.02
2022-12-27T23:06:20.099Z,2.02
2022-12-27T23:08:47.828Z,2.03
2022-12-27T23:11:18.287Z,2.04
2022-12-27T23:13:45.845Z,2.01
2022-12-27T23:16:12.950Z,2.03
2022-12-27T23:18:39.653Z,1.99
2022-12-27T23:21:20.047Z,1.97
2022-12-27T23:23:52.038Z,2.02
2022-12-27T23:26:22.193Z,2.00
2022-12-27T23:28:51.487Z,1.99
2022-12-27T23:31:20.636Z,2.00
2022-12-27T23:33:47.720Z,1.99
2022-12-27T23:36:15.171Z,1.97
2022-12-27T23:38:43.307Z,1.97
2022-12-27T23:41:15.636Z,1.95
2022-12-27T23:43:58.524Z,1.85
2022-12-27T23:46:28.263Z,1.84
2022-12-27T23:48:57.162Z,1.94
2022-12-27T23:51:24.655Z,1.92
2022-12-27T23:53:51.959Z,1.90
2022-12-27T23:56:20.755Z,1.92
2022-12-27T23:58:48.575Z,1.92
